Thunder radar more information blitzortung!


Radar de pluja more information rain snow radar


Visita la nostra xarxa de llocs de meteo:

Template documentation
and downloads

And another site



No particular awareness of the weather is required.    There are no Weather-warnings

Pagina Historial Weather Underground text

Diari Resum Octubre 31, 2017 Unitats:  Imperial    Mètric   Tant
« Previous Dia
SegĂźent Dia »
Diari Setmana Mensual Anual Personalitzada
  Maxima: Minima: Media:
Temperatura: TemperatureC °F 10.6 °F 14.6 °F
Punt de rosada: DewpointC °F 5.7 °F 7.9 °F
Humitat: Humidity % 53 % 64 %
Wind Speed: WindSpeedKMH mph 0.0 mph 3.5 mph
RĂ fegues de vent: WindSpeedGustKMH mph - -
Vent:- - South
Pression baro: PressurehPa in 1019.9 in -
Precipitacions: 0.0 in    
Historical Graphs
 
 
Dades de taula per Octubre 31, 2017
Temps Temperatura Punt de rosada Pression baro Vent Wind Speed RĂ fegues de vent Humitat Rainfall Rate (Hourly)
TemperatureC °F DewpointC °F PressurehPa in Calm     Humidity % HourlyPrecipMM in
00:02 13.7 °F 9.6 °F 1019.9 in Calm     76 % 0.0 in
00:05 13.1 °F 8.2 °F 1021.9 in NNE 3.2 mph 4.8 mph 72 % 0.0 in
00:07 13.7 °F 9.6 °F 1019.9 in ESE 5.0 mph 5.0 mph 76 % 0.0 in
00:15 12.9 °F 8.2 °F 1021.9 in Calm   1.6 mph 73 % 0.0 in
00:25 12.8 °F 8.1 °F 1020.9 in North 1.6 mph 3.2 mph 73 % 0.0 in
00:35 12.7 °F 7.8 °F 1020.9 in North 1.6 mph 1.6 mph 72 % 0.0 in
00:45 12.6 °F 7.5 °F 1021.9 in Calm   1.6 mph 71 % 0.0 in
00:55 12.6 °F 7.3 °F 1021.9 in North 1.6 mph 3.2 mph 70 % 0.0 in
01:05 12.4 °F 6.9 °F 1021.9 in Calm   1.6 mph 69 % 0.0 in
01:15 12.4 °F 6.9 °F 1021.9 in WNW 1.6 mph 3.2 mph 69 % 0.0 in
01:25 12.4 °F 6.7 °F 1020.9 in NW 1.6 mph 3.2 mph 68 % 0.0 in
01:45 12.2 °F 6.2 °F 1021.9 in WNW 1.6 mph 4.8 mph 67 % 0.0 in
01:55 12.1 °F 6.2 °F 1021.9 in Calm   1.6 mph 67 % 0.0 in
02:05 11.9 °F 5.9 °F 1021.9 in Calm   4.8 mph 67 % 0.0 in
02:15 11.9 °F 5.7 °F 1022.9 in Calm   3.2 mph 66 % 0.0 in
02:25 12.0 °F 5.8 °F 1022.9 in West 1.6 mph 1.6 mph 66 % 0.0 in
02:35 12.0 °F 5.8 °F 1022.9 in Calm   1.6 mph 66 % 0.0 in
02:45 12.2 °F 6.1 °F 1022.9 in Calm   1.6 mph 66 % 0.0 in
02:55 12.2 °F 6.1 °F 1022.9 in West 1.6 mph 1.6 mph 66 % 0.0 in
03:05 12.4 °F 6.2 °F 1022.9 in Calm   3.2 mph 66 % 0.0 in
03:15 12.4 °F 6.2 °F 1022.9 in West 1.6 mph 3.2 mph 66 % 0.0 in
09:24 12.4 °F 6.2 °F 1023.9 in NW 1.9 mph 1.9 mph 66 % 0.0 in
09:25 12.4 °F 6.2 °F 1023.9 in NW 1.9 mph 1.9 mph 66 % 0.0 in
09:30 12.5 °F 6.3 °F 1023.9 in WNW 1.9 mph   66 % 0.0 in
09:35 12.5 °F 6.3 °F 1023.9 in SW 3.7 mph 3.7 mph 66 % 0.0 in
09:40 12.7 °F 6.5 °F 1023.9 in WSW 3.9 mph 3.9 mph 66 % 0.0 in
09:45 12.8 °F 6.4 °F 1023.9 in SW 2.3 mph   65 % 0.0 in
09:50 12.9 °F 6.5 °F 1023.9 in SW 5.0 mph 5.0 mph 65 % 0.0 in
09:55 13.0 °F 6.6 °F 1023.9 in SW 3.7 mph 3.7 mph 65 % 0.0 in
10:00 13.1 °F 6.4 °F 1023.9 in SSW 1.9 mph 1.9 mph 64 % 0.0 in
10:05 13.3 °F 6.6 °F 1023.9 in SW 2.3 mph   64 % 0.0 in
10:10 13.7 °F 7.0 °F 1023.9 in SE 2.6 mph 2.6 mph 64 % 0.0 in
10:15 13.9 °F 7.2 °F 1023.9 in South 4.7 mph 4.7 mph 64 % 0.0 in
10:20 13.9 °F 6.9 °F 1023.9 in SW 3.7 mph 3.7 mph 63 % 0.0 in
10:25 14.0 °F 7.3 °F 1023.9 in WSW 5.0 mph 5.0 mph 64 % 0.0 in
10:30 14.2 °F 7.3 °F 1023.9 in SW 3.2 mph   63 % 0.0 in
10:35 14.3 °F 7.3 °F 1023.9 in SW 4.2 mph 4.2 mph 63 % 0.0 in
10:40 14.6 °F 7.6 °F 1023.9 in NNW 2.6 mph 2.6 mph 63 % 0.0 in
10:45 14.6 °F 7.4 °F 1023.9 in NNE 5.6 mph 5.6 mph 62 % 0.0 in
10:50 14.7 °F 7.5 °F 1023.9 in NNE 1.9 mph   62 % 0.0 in
10:55 14.5 °F 7.3 °F 1023.9 in WNW 3.7 mph 3.9 mph 62 % 0.0 in
11:00 14.5 °F 7.3 °F 1023.9 in NE 3.7 mph 3.7 mph 62 % 0.0 in
11:05 14.4 °F 7.2 °F 1023.9 in ENE 5.6 mph 5.6 mph 62 % 0.0 in
11:10 14.5 °F 7.3 °F 1023.9 in NNW 5.6 mph 5.6 mph 62 % 0.0 in
11:15 14.3 °F 7.1 °F 1023.9 in NNE 5.6 mph 5.6 mph 62 % 0.0 in
11:20 14.3 °F 6.9 °F 1023.9 in NNE 9.5 mph 9.5 mph 61 % 0.0 in
11:25 14.2 °F 7.0 °F 1023.9 in NNE 6.4 mph 6.4 mph 62 % 0.0 in
11:30 14.4 °F 7.2 °F 1023.9 in NE 3.7 mph 3.7 mph 62 % 0.0 in
11:35 14.4 °F 7.2 °F 1023.9 in ENE 7.4 mph 7.4 mph 62 % 0.0 in
11:40 14.5 °F 7.3 °F 1022.9 in NE 3.9 mph 3.9 mph 62 % 0.0 in
11:45 15.1 °F 7.9 °F 1022.9 in NNE 5.6 mph 5.6 mph 62 % 0.0 in
11:50 15.2 °F 7.7 °F 1022.9 in NNE 5.6 mph 5.6 mph 61 % 0.0 in
11:55 15.3 °F 7.8 °F 1022.9 in ENE 1.9 mph 1.9 mph 61 % 0.0 in
12:00 15.2 °F 7.7 °F 1022.9 in ENE 3.7 mph 3.9 mph 61 % 0.0 in
12:05 15.1 °F 7.4 °F 1022.9 in ESE 3.7 mph 3.7 mph 60 % 0.0 in
12:10 15.3 °F 7.8 °F 1022.9 in ENE 3.7 mph 3.7 mph 61 % 0.0 in
12:15 15.3 °F 7.6 °F 1022.9 in NE 5.6 mph 5.6 mph 60 % 0.0 in
12:20 15.9 °F 8.4 °F 1022.9 in NNE 3.7 mph 3.7 mph 61 % 0.0 in
12:25 16.0 °F 8.2 °F 1022.9 in WNW 3.7 mph 3.7 mph 60 % 0.0 in
12:30 16.4 °F 8.6 °F 1022.9 in Calm     60 % 0.0 in
12:35 16.9 °F 8.8 °F 1022.9 in SSE 7.6 mph 7.6 mph 59 % 0.0 in
12:40 16.5 °F 8.4 °F 1022.9 in SW 1.9 mph 1.9 mph 59 % 0.0 in
12:45 16.6 °F 8.8 °F 1022.9 in WNW 3.7 mph 3.7 mph 60 % 0.0 in
12:50 16.7 °F 8.7 °F 1022.9 in East 4.2 mph 4.2 mph 59 % 0.0 in
12:55 16.7 °F 8.7 °F 1022.9 in NNW 3.7 mph 3.7 mph 59 % 0.0 in
13:00 16.6 °F 8.3 °F 1022.9 in East 3.7 mph 3.7 mph 58 % 0.0 in
13:10 16.9 °F 8.8 °F 1022.9 in SSE 3.7 mph 3.7 mph 59 % 0.0 in
13:20 17.5 °F 9.2 °F 1022.9 in SW 5.6 mph 5.6 mph 58 % 0.0 in
13:25 18.0 °F 9.6 °F 1021.9 in SW 5.6 mph 5.6 mph 58 % 0.0 in
13:30 18.2 °F 9.6 °F 1021.9 in SSW 7.4 mph 7.4 mph 57 % 0.0 in
13:35 17.9 °F 9.3 °F 1021.9 in SW 4.7 mph 4.7 mph 57 % 0.0 in
13:40 17.5 °F 8.9 °F 1021.9 in SW 5.6 mph 5.6 mph 57 % 0.0 in
13:45 17.4 °F 8.5 °F 1021.9 in ESE 5.6 mph 5.6 mph 56 % 0.0 in
13:50 17.7 °F 9.1 °F 1021.9 in WNW 9.3 mph 9.3 mph 57 % 0.0 in
13:55 17.8 °F 9.2 °F 1021.9 in SW 9.3 mph 9.3 mph 57 % 0.0 in
14:00 18.2 °F 9.3 °F 1021.9 in SSE 5.6 mph 5.6 mph 56 % 0.0 in
14:05 18.0 °F 9.1 °F 1021.9 in South 5.6 mph 5.6 mph 56 % 0.0 in
14:10 18.2 °F 9.3 °F 1021.9 in SW 9.3 mph 9.3 mph 56 % 0.0 in
14:15 18.3 °F 9.4 °F 1021.9 in WSW 9.3 mph 9.3 mph 56 % 0.0 in
14:20 18.4 °F 9.4 °F 1021.9 in SSE 7.4 mph 7.4 mph 56 % 0.0 in
14:25 18.5 °F 9.3 °F 1021.9 in SSE 9.3 mph 9.3 mph 55 % 0.0 in
14:30 18.7 °F 9.7 °F 1021.9 in South 4.2 mph 4.2 mph 56 % 0.0 in
14:35 19.0 °F 9.5 °F 1021.9 in SSW 3.7 mph 3.7 mph 54 % 0.0 in
14:40 19.2 °F 9.7 °F 1021.9 in SW 3.7 mph 3.7 mph 54 % 0.0 in
14:45 19.4 °F 9.8 °F 1021.9 in SW 7.6 mph 7.6 mph 54 % 0.0 in
14:50 19.5 °F 10.2 °F 1021.9 in SSW 9.5 mph 9.5 mph 55 % 0.0 in
14:55 19.4 °F 9.8 °F 1021.9 in SW 7.4 mph 7.4 mph 54 % 0.0 in
15:00 19.6 °F 10.1 °F 1021.9 in West 3.7 mph 3.7 mph 54 % 0.0 in
15:05 19.7 °F 10.1 °F 1021.9 in South 5.6 mph 5.6 mph 54 % 0.0 in
15:10 19.7 °F 10.1 °F 1021.9 in SW 11.1 mph 11.1 mph 54 % 0.0 in
15:15 19.4 °F 9.6 °F 1021.9 in South 3.7 mph 3.7 mph 53 % 0.0 in
15:20 19.5 °F 9.9 °F 1021.9 in SW 13.0 mph 13.0 mph 54 % 0.0 in
15:25 19.5 °F 9.9 °F 1021.9 in SW 6.1 mph 6.1 mph 54 % 0.0 in
15:30 19.4 °F 9.8 °F 1021.9 in SW 7.4 mph 7.4 mph 54 % 0.0 in
15:35 19.4 °F 9.6 °F 1021.9 in WSW 9.3 mph 9.3 mph 53 % 0.0 in
15:40 19.4 °F 9.8 °F 1021.9 in SW 7.4 mph 7.4 mph 54 % 0.0 in
15:45 19.5 °F 9.9 °F 1021.9 in West 9.3 mph 9.3 mph 54 % 0.0 in
15:50 19.2 °F 9.7 °F 1021.9 in SW 7.4 mph 7.4 mph 54 % 0.0 in
15:55 19.2 °F 9.7 °F 1021.9 in WSW 5.6 mph 5.6 mph 54 % 0.0 in
16:00 19.3 °F 10.1 °F 1021.9 in SSW 7.4 mph 7.4 mph 55 % 0.0 in
16:05 19.1 °F 9.8 °F 1021.9 in SSW 7.4 mph 7.4 mph 55 % 0.0 in
16:10 18.9 °F 9.9 °F 1021.9 in WSW 7.4 mph 7.4 mph 56 % 0.0 in
16:15 18.7 °F 9.7 °F 1021.9 in SSW 9.3 mph 9.3 mph 56 % 0.0 in
16:20 18.4 °F 9.4 °F 1021.9 in SW 13.0 mph 13.0 mph 56 % 0.0 in
16:25 18.2 °F 9.3 °F 1021.9 in SSW 7.4 mph 7.4 mph 56 % 0.0 in
16:30 18.2 °F 9.3 °F 1021.9 in WSW 7.4 mph 7.4 mph 56 % 0.0 in
16:35 18.1 °F 9.2 °F 1021.9 in SW 7.4 mph 7.4 mph 56 % 0.0 in
16:40 18.0 °F 9.1 °F 1021.9 in SW 9.3 mph 9.3 mph 56 % 0.0 in
16:45 17.9 °F 9.3 °F 1021.9 in SSW 8.7 mph 8.7 mph 57 % 0.0 in
16:50 17.6 °F 9.0 °F 1021.9 in SW 9.5 mph 9.5 mph 57 % 0.0 in
16:55 17.5 °F 8.9 °F 1020.9 in SW 9.3 mph 9.3 mph 57 % 0.0 in
17:00 17.4 °F 8.8 °F 1020.9 in WSW 11.1 mph 11.1 mph 57 % 0.0 in
17:05 17.3 °F 8.7 °F 1020.9 in SSW 9.3 mph 9.3 mph 57 % 0.0 in
17:10 17.0 °F 8.7 °F 1020.9 in SW 7.4 mph 7.4 mph 58 % 0.0 in
17:15 16.8 °F 8.7 °F 1020.9 in WSW 9.3 mph 9.3 mph 59 % 0.0 in
17:20 16.7 °F 8.7 °F 1020.9 in WSW 5.6 mph 5.6 mph 59 % 0.0 in
17:25 16.5 °F 8.7 °F 1021.9 in West 5.6 mph 5.6 mph 60 % 0.0 in
17:30 16.3 °F 8.5 °F 1021.9 in SW 5.6 mph 5.6 mph 60 % 0.0 in
17:35 16.1 °F 8.3 °F 1021.9 in SW 5.6 mph 5.6 mph 60 % 0.0 in
17:40 16.0 °F 8.5 °F 1021.9 in SW 3.7 mph 3.7 mph 61 % 0.0 in
17:45 15.8 °F 8.3 °F 1021.9 in WSW 5.6 mph 5.6 mph 61 % 0.0 in
17:50 15.6 °F 8.1 °F 1021.9 in SW 3.7 mph 3.7 mph 61 % 0.0 in
17:55 15.5 °F 8.0 °F 1021.9 in WSW 5.6 mph 5.6 mph 61 % 0.0 in
18:00 15.4 °F 8.2 °F 1021.9 in WSW 3.7 mph 3.7 mph 62 % 0.0 in
18:05 15.3 °F 8.1 °F 1021.9 in Calm     62 % 0.0 in
18:10 15.1 °F 8.1 °F 1021.9 in Calm     63 % 0.0 in
18:15 15.0 °F 8.0 °F 1021.9 in SE 1.9 mph   63 % 0.0 in
18:16 15.0 °F 8.0 °F 1021.9 in SE 1.9 mph   63 % 0.0 in
18:21 14.9 °F 7.9 °F 1021.9 in Calm     63 % 0.0 in
18:26 14.8 °F 8.1 °F 1022.9 in Calm     64 % 0.0 in
18:31 14.8 °F 8.1 °F 1022.9 in Calm     64 % 0.0 in
18:36 14.7 °F 7.9 °F 1022.9 in Calm     64 % 0.0 in
18:41 14.6 °F 7.9 °F 1022.9 in Calm     64 % 0.0 in
18:46 14.6 °F 7.9 °F 1022.9 in Calm     64 % 0.0 in
18:51 14.6 °F 8.1 °F 1022.9 in ESE 1.9 mph 1.9 mph 65 % 0.0 in
18:56 14.5 °F 8.0 °F 1022.9 in Calm     65 % 0.0 in
19:01 14.3 °F 7.8 °F 1022.9 in Calm     65 % 0.0 in
19:06 14.3 °F 8.1 °F 1022.9 in Calm     66 % 0.0 in
19:11 14.2 °F 7.9 °F 1022.9 in Calm     66 % 0.0 in
19:16 14.2 °F 7.9 °F 1022.9 in NE 1.9 mph 1.9 mph 66 % 0.0 in
19:21 14.1 °F 7.8 °F 1022.9 in Calm     66 % 0.0 in
19:26 14.1 °F 7.8 °F 1022.9 in NE 1.9 mph 1.9 mph 66 % 0.0 in
19:31 14.0 °F 7.7 °F 1022.9 in Calm     66 % 0.0 in
19:36 14.1 °F 7.8 °F 1022.9 in WNW 1.9 mph   66 % 0.0 in
19:41 14.0 °F 7.9 °F 1022.9 in Calm     67 % 0.0 in
19:46 14.0 °F 7.9 °F 1022.9 in WNW 1.9 mph   67 % 0.0 in
19:51 13.9 °F 7.9 °F 1022.9 in Calm     67 % 0.0 in
19:56 13.8 °F 8.0 °F 1022.9 in Calm     68 % 0.0 in
20:01 13.7 °F 7.9 °F 1022.9 in NNE 2.3 mph 2.3 mph 68 % 0.0 in
20:06 13.4 °F 7.6 °F 1022.9 in NNE 1.9 mph 1.9 mph 68 % 0.0 in
20:11 13.4 °F 7.8 °F 1022.9 in NNE 2.3 mph 2.3 mph 69 % 0.0 in
20:16 13.3 °F 7.7 °F 1022.9 in Calm     69 % 0.0 in
20:21 13.2 °F 7.6 °F 1022.9 in Calm     69 % 0.0 in
20:26 13.1 °F 7.6 °F 1023.9 in Calm     69 % 0.0 in
20:31 13.1 °F 7.6 °F 1023.9 in Calm     69 % 0.0 in
20:36 13.0 °F 7.7 °F 1023.9 in NNE 1.9 mph   70 % 0.0 in
20:37 13.0 °F 7.7 °F 1023.9 in NNE 1.9 mph   70 % 0.0 in
20:42 12.9 °F 7.6 °F 1023.9 in Calm     70 % 0.0 in
20:47 12.8 °F 7.4 °F 1023.9 in Calm     70 % 0.0 in
20:52 12.7 °F 7.4 °F 1023.9 in Calm     70 % 0.0 in
20:57 12.5 °F 7.2 °F 1023.9 in Calm     70 % 0.0 in
21:02 12.3 °F 7.0 °F 1023.9 in West 3.7 mph 3.7 mph 70 % 0.0 in
21:07 12.2 °F 7.1 °F 1023.9 in West 2.6 mph 2.6 mph 71 % 0.0 in
21:12 12.2 °F 7.1 °F 1023.9 in West 3.2 mph 3.2 mph 71 % 0.0 in
21:17 12.2 °F 7.1 °F 1023.9 in West 2.3 mph 2.3 mph 71 % 0.0 in
21:22 12.3 °F 7.4 °F 1023.9 in Calm     72 % 0.0 in
21:27 12.3 °F 7.4 °F 1023.9 in West 2.3 mph   72 % 0.0 in
21:32 12.3 °F 7.4 °F 1023.9 in West 2.3 mph 2.3 mph 72 % 0.0 in
21:37 12.2 °F 7.5 °F 1023.9 in West 1.9 mph   73 % 0.0 in
21:42 12.1 °F 7.4 °F 1023.9 in West 1.9 mph   73 % 0.0 in
21:47 12.1 °F 7.4 °F 1023.9 in West 1.9 mph 1.9 mph 73 % 0.0 in
21:52 12.0 °F 7.3 °F 1024.9 in Calm     73 % 0.0 in
21:57 12.0 °F 7.3 °F 1024.9 in Calm     73 % 0.0 in
22:02 12.0 °F 7.5 °F 1024.9 in Calm     74 % 0.0 in
22:07 11.9 °F 7.4 °F 1023.9 in Calm     74 % 0.0 in
22:12 11.9 °F 7.4 °F 1023.9 in Calm     74 % 0.0 in
22:17 11.9 °F 7.6 °F 1023.9 in Calm     75 % 0.0 in
22:22 11.8 °F 7.3 °F 1023.9 in Calm     74 % 0.0 in
22:27 11.8 °F 7.5 °F 1023.9 in Calm     75 % 0.0 in
22:32 11.8 °F 7.5 °F 1023.9 in Calm     75 % 0.0 in
22:37 11.7 °F 7.4 °F 1023.9 in Calm     75 % 0.0 in
22:42 11.7 °F 7.4 °F 1023.9 in Calm     75 % 0.0 in
22:47 11.6 °F 7.3 °F 1023.9 in Calm     75 % 0.0 in
22:52 11.6 °F 7.3 °F 1023.9 in Calm     75 % 0.0 in
22:57 11.5 °F 7.2 °F 1023.9 in WNW 1.9 mph   75 % 0.0 in
23:02 11.4 °F 7.1 °F 1023.9 in Calm     75 % 0.0 in
23:07 11.3 °F 7.0 °F 1023.9 in WSW 2.6 mph 2.6 mph 75 % 0.0 in
23:12 11.2 °F 6.9 °F 1023.9 in Calm     75 % 0.0 in
23:17 11.2 °F 7.1 °F 1023.9 in ENE 3.2 mph 3.2 mph 76 % 0.0 in
23:22 11.1 °F 7.0 °F 1023.9 in ENE 2.6 mph 2.6 mph 76 % 0.0 in
23:27 11.0 °F 6.9 °F 1023.9 in ENE 2.6 mph 2.6 mph 76 % 0.0 in
23:32 11.0 °F 6.9 °F 1023.9 in ENE 3.7 mph 3.7 mph 76 % 0.0 in
23:33 10.9 °F 6.8 °F 1023.9 in ENE 3.7 mph 3.7 mph 76 % 0.0 in
23:38 10.8 °F 6.9 °F 1023.9 in NE 3.7 mph 3.7 mph 77 % 0.0 in
23:43 10.8 °F 6.9 °F 1023.9 in Calm     77 % 0.0 in
23:48 10.7 °F 6.8 °F 1023.9 in Calm     77 % 0.0 in
23:53 10.6 °F 6.7 °F 1023.9 in WSW 1.9 mph 1.9 mph 77 % 0.0 in
23:58 10.6 °F 6.7 °F 1023.9 in Calm     77 % 0.0 in
Meteo Sesrovires
Elogis d' Weather Underground - 1.5 mb

Guio original per  Jim McMurry - jmcmurry@mwt.net Adaptat per a la plantilla per  Wim van der Kuil - Leuven-Template.eu

Trobareu la nostra informacio del temps tambe a:

Weather Underground

AWEKAS